sensor_id;sensor_type;location;lat;lon;timestamp;P1;durP1;ratioP1;P2;durP2;ratioP2
83840;SDS011;73868;52.172;10.668;2023-11-21T00:01:25;7.37;;;5.23;;
83840;SDS011;73868;52.172;10.668;2023-11-21T00:03:51;8.40;;;5.40;;
83840;SDS011;73868;52.172;10.668;2023-11-21T00:06:19;10.73;;;5.53;;
83840;SDS011;73868;52.172;10.668;2023-11-21T00:08:45;10.40;;;6.43;;
83840;SDS011;73868;52.172;10.668;2023-11-21T00:11:11;8.77;;;5.70;;
83840;SDS011;73868;52.172;10.668;2023-11-21T00:13:37;8.30;;;6.13;;
83840;SDS011;73868;52.172;10.668;2023-11-21T00:16:04;10.00;;;5.90;;
83840;SDS011;73868;52.172;10.668;2023-11-21T00:18:30;10.33;;;5.43;;
83840;SDS011;73868;52.172;10.668;2023-11-21T00:20:56;9.57;;;5.63;;
83840;SDS011;73868;52.172;10.668;2023-11-21T00:23:23;11.10;;;5.93;;
83840;SDS011;73868;52.172;10.668;2023-11-21T00:25:50;10.37;;;5.87;;
83840;SDS011;73868;52.172;10.668;2023-11-21T00:28:16;10.40;;;6.87;;
83840;SDS011;73868;52.172;10.668;2023-11-21T00:30:42;9.37;;;6.17;;
83840;SDS011;73868;52.172;10.668;2023-11-21T00:33:08;11.07;;;6.43;;
83840;SDS011;73868;52.172;10.668;2023-11-21T00:35:34;9.77;;;6.47;;
83840;SDS011;73868;52.172;10.668;2023-11-21T00:38:00;13.13;;;6.63;;
83840;SDS011;73868;52.172;10.668;2023-11-21T00:40:26;11.53;;;6.93;;
83840;SDS011;73868;52.172;10.668;2023-11-21T00:42:52;8.87;;;6.70;;
83840;SDS011;73868;52.172;10.668;2023-11-21T00:45:18;9.40;;;6.13;;
83840;SDS011;73868;52.172;10.668;2023-11-21T00:47:44;8.47;;;5.83;;
83840;SDS011;73868;52.172;10.668;2023-11-21T00:50:10;10.90;;;6.90;;
83840;SDS011;73868;52.172;10.668;2023-11-21T00:52:36;12.43;;;6.40;;
83840;SDS011;73868;52.172;10.668;2023-11-21T00:55:03;10.07;;;6.20;;
83840;SDS011;73868;52.172;10.668;2023-11-21T00:57:29;11.90;;;7.37;;
83840;SDS011;73868;52.172;10.668;2023-11-21T00:59:55;10.07;;;7.30;;
83840;SDS011;73868;52.172;10.668;2023-11-21T01:02:21;14.40;;;7.57;;
83840;SDS011;73868;52.172;10.668;2023-11-21T01:04:47;12.77;;;7.00;;
83840;SDS011;73868;52.172;10.668;2023-11-21T01:07:13;13.63;;;8.10;;
83840;SDS011;73868;52.172;10.668;2023-11-21T01:09:39;8.90;;;6.37;;
83840;SDS011;73868;52.172;10.668;2023-11-21T01:12:05;12.47;;;7.43;;
83840;SDS011;73868;52.172;10.668;2023-11-21T01:14:31;13.17;;;7.10;;
83840;SDS011;73868;52.172;10.668;2023-11-21T01:16:57;12.97;;;7.37;;
83840;SDS011;73868;52.172;10.668;2023-11-21T01:19:23;10.57;;;6.67;;
83840;SDS011;73868;52.172;10.668;2023-11-21T01:21:49;12.80;;;7.78;;
83840;SDS011;73868;52.172;10.668;2023-11-21T01:24:17;14.53;;;8.40;;
83840;SDS011;73868;52.172;10.668;2023-11-21T01:26:42;15.27;;;8.00;;
83840;SDS011;73868;52.172;10.668;2023-11-21T01:29:11;14.25;;;8.18;;
83840;SDS011;73868;52.172;10.668;2023-11-21T01:31:37;17.43;;;8.13;;
83840;SDS011;73868;52.172;10.668;2023-11-21T01:34:03;11.93;;;7.50;;
83840;SDS011;73868;52.172;10.668;2023-11-21T01:36:30;14.83;;;8.80;;
83840;SDS011;73868;52.172;10.668;2023-11-21T01:38:59;14.97;;;8.57;;
83840;SDS011;73868;52.172;10.668;2023-11-21T01:41:28;17.67;;;8.90;;
83840;SDS011;73868;52.172;10.668;2023-11-21T01:43:55;11.27;;;8.63;;
83840;SDS011;73868;52.172;10.668;2023-11-21T01:46:22;18.87;;;10.40;;
83840;SDS011;73868;52.172;10.668;2023-11-21T01:48:49;14.57;;;9.53;;
83840;SDS011;73868;52.172;10.668;2023-11-21T01:51:15;16.40;;;10.40;;
83840;SDS011;73868;52.172;10.668;2023-11-21T01:53:41;17.47;;;9.53;;
83840;SDS011;73868;52.172;10.668;2023-11-21T01:56:07;17.07;;;9.50;;
83840;SDS011;73868;52.172;10.668;2023-11-21T01:58:34;17.57;;;10.20;;
83840;SDS011;73868;52.172;10.668;2023-11-21T02:01:00;13.80;;;9.67;;
83840;SDS011;73868;52.172;10.668;2023-11-21T02:03:26;14.80;;;9.83;;
83840;SDS011;73868;52.172;10.668;2023-11-21T02:05:53;19.30;;;10.53;;
83840;SDS011;73868;52.172;10.668;2023-11-21T02:08:19;17.03;;;9.77;;
83840;SDS011;73868;52.172;10.668;2023-11-21T02:10:45;16.33;;;10.80;;
83840;SDS011;73868;52.172;10.668;2023-11-21T02:13:12;14.93;;;9.27;;
83840;SDS011;73868;52.172;10.668;2023-11-21T02:15:38;13.17;;;8.80;;
83840;SDS011;73868;52.172;10.668;2023-11-21T02:18:06;13.43;;;8.40;;
83840;SDS011;73868;52.172;10.668;2023-11-21T02:20:32;15.37;;;9.93;;
83840;SDS011;73868;52.172;10.668;2023-11-21T02:23:00;17.80;;;10.23;;
83840;SDS011;73868;52.172;10.668;2023-11-21T02:25:27;16.23;;;10.33;;
83840;SDS011;73868;52.172;10.668;2023-11-21T02:27:54;17.30;;;10.87;;
83840;SDS011;73868;52.172;10.668;2023-11-21T02:30:20;18.77;;;11.80;;
83840;SDS011;73868;52.172;10.668;2023-11-21T02:32:47;16.27;;;10.10;;
83840;SDS011;73868;52.172;10.668;2023-11-21T02:35:13;17.27;;;11.07;;
83840;SDS011;73868;52.172;10.668;2023-11-21T02:37:40;19.27;;;11.33;;
83840;SDS011;73868;52.172;10.668;2023-11-21T02:40:08;13.53;;;10.40;;
83840;SDS011;73868;52.172;10.668;2023-11-21T02:42:34;17.10;;;11.32;;
83840;SDS011;73868;52.172;10.668;2023-11-21T02:45:00;16.23;;;10.80;;
83840;SDS011;73868;52.172;10.668;2023-11-21T02:47:26;17.10;;;11.40;;
83840;SDS011;73868;52.172;10.668;2023-11-21T02:49:53;15.37;;;11.00;;
83840;SDS011;73868;52.172;10.668;2023-11-21T02:52:19;20.57;;;11.80;;
83840;SDS011;73868;52.172;10.668;2023-11-21T02:54:45;17.47;;;12.07;;
83840;SDS011;73868;52.172;10.668;2023-11-21T02:57:11;18.97;;;12.13;;
83840;SDS011;73868;52.172;10.668;2023-11-21T02:59:38;18.73;;;12.80;;
83840;SDS011;73868;52.172;10.668;2023-11-21T03:02:04;23.73;;;12.90;;
83840;SDS011;73868;52.172;10.668;2023-11-21T03:04:33;17.13;;;12.77;;
83840;SDS011;73868;52.172;10.668;2023-11-21T03:06:59;18.93;;;13.23;;
83840;SDS011;73868;52.172;10.668;2023-11-21T03:09:25;19.10;;;12.93;;
83840;SDS011;73868;52.172;10.668;2023-11-21T03:11:52;21.43;;;14.33;;
83840;SDS011;73868;52.172;10.668;2023-11-21T03:14:18;20.60;;;14.17;;
83840;SDS011;73868;52.172;10.668;2023-11-21T03:16:44;23.33;;;14.03;;
83840;SDS011;73868;52.172;10.668;2023-11-21T03:19:10;22.20;;;14.90;;
83840;SDS011;73868;52.172;10.668;2023-11-21T03:21:36;19.33;;;14.47;;
83840;SDS011;73868;52.172;10.668;2023-11-21T03:24:03;21.47;;;12.93;;
83840;SDS011;73868;52.172;10.668;2023-11-21T03:26:29;23.60;;;15.30;;
83840;SDS011;73868;52.172;10.668;2023-11-21T03:28:55;21.30;;;14.07;;
83840;SDS011;73868;52.172;10.668;2023-11-21T03:31:21;18.07;;;13.70;;
83840;SDS011;73868;52.172;10.668;2023-11-21T03:33:47;19.03;;;13.37;;
83840;SDS011;73868;52.172;10.668;2023-11-21T03:36:13;19.67;;;13.50;;
83840;SDS011;73868;52.172;10.668;2023-11-21T03:38:43;22.03;;;14.63;;
83840;SDS011;73868;52.172;10.668;2023-11-21T03:41:09;25.07;;;15.03;;
83840;SDS011;73868;52.172;10.668;2023-11-21T03:43:35;21.93;;;13.13;;
83840;SDS011;73868;52.172;10.668;2023-11-21T03:46:01;25.30;;;14.30;;
83840;SDS011;73868;52.172;10.668;2023-11-21T03:48:27;22.07;;;14.13;;
83840;SDS011;73868;52.172;10.668;2023-11-21T03:50:53;23.30;;;14.13;;
83840;SDS011;73868;52.172;10.668;2023-11-21T03:53:19;18.67;;;13.07;;
83840;SDS011;73868;52.172;10.668;2023-11-21T03:55:45;20.85;;;12.93;;
83840;SDS011;73868;52.172;10.668;2023-11-21T03:58:11;23.77;;;14.32;;
83840;SDS011;73868;52.172;10.668;2023-11-21T04:00:37;21.73;;;14.43;;
83840;SDS011;73868;52.172;10.668;2023-11-21T04:03:03;21.80;;;13.57;;
83840;SDS011;73868;52.172;10.668;2023-11-21T04:05:30;20.37;;;13.90;;
83840;SDS011;73868;52.172;10.668;2023-11-21T04:07:56;24.50;;;14.43;;
83840;SDS011;73868;52.172;10.668;2023-11-21T04:10:23;21.60;;;13.33;;
83840;SDS011;73868;52.172;10.668;2023-11-21T04:12:49;22.10;;;15.93;;
83840;SDS011;73868;52.172;10.668;2023-11-21T04:15:15;24.13;;;16.27;;
83840;SDS011;73868;52.172;10.668;2023-11-21T04:17:42;39.53;;;23.83;;
83840;SDS011;73868;52.172;10.668;2023-11-21T04:20:08;41.73;;;24.63;;
83840;SDS011;73868;52.172;10.668;2023-11-21T04:22:41;76.60;;;43.73;;
83840;SDS011;73868;52.172;10.668;2023-11-21T04:25:12;84.23;;;50.73;;
83840;SDS011;73868;52.172;10.668;2023-11-21T04:27:39;70.30;;;42.63;;
83840;SDS011;73868;52.172;10.668;2023-11-21T04:30:06;57.70;;;37.25;;
83840;SDS011;73868;52.172;10.668;2023-11-21T04:32:32;30.60;;;20.40;;
83840;SDS011;73868;52.172;10.668;2023-11-21T04:34:58;29.60;;;17.90;;
83840;SDS011;73868;52.172;10.668;2023-11-21T04:37:24;26.50;;;18.40;;
83840;SDS011;73868;52.172;10.668;2023-11-21T04:39:50;28.17;;;16.77;;
83840;SDS011;73868;52.172;10.668;2023-11-21T04:42:17;37.67;;;27.73;;
83840;SDS011;73868;52.172;10.668;2023-11-21T04:44:43;40.33;;;28.85;;
83840;SDS011;73868;52.172;10.668;2023-11-21T04:47:09;45.07;;;32.90;;
83840;SDS011;73868;52.172;10.668;2023-11-21T04:49:35;45.10;;;32.43;;
83840;SDS011;73868;52.172;10.668;2023-11-21T04:52:01;34.45;;;23.90;;
83840;SDS011;73868;52.172;10.668;2023-11-21T04:54:28;34.15;;;21.48;;
83840;SDS011;73868;52.172;10.668;2023-11-21T04:56:55;29.47;;;20.60;;
83840;SDS011;73868;52.172;10.668;2023-11-21T04:59:21;26.50;;;17.48;;
83840;SDS011;73868;52.172;10.668;2023-11-21T05:01:52;25.50;;;16.30;;
83840;SDS011;73868;52.172;10.668;2023-11-21T05:04:18;23.97;;;16.93;;
83840;SDS011;73868;52.172;10.668;2023-11-21T05:06:44;26.27;;;16.10;;
83840;SDS011;73868;52.172;10.668;2023-11-21T05:09:11;26.07;;;16.63;;
83840;SDS011;73868;52.172;10.668;2023-11-21T05:11:37;26.47;;;17.30;;
83840;SDS011;73868;52.172;10.668;2023-11-21T05:14:04;30.80;;;17.17;;
83840;SDS011;73868;52.172;10.668;2023-11-21T05:16:30;31.13;;;18.17;;
83840;SDS011;73868;52.172;10.668;2023-11-21T05:18:56;26.83;;;18.10;;
83840;SDS011;73868;52.172;10.668;2023-11-21T05:21:25;25.80;;;18.13;;
83840;SDS011;73868;52.172;10.668;2023-11-21T05:23:51;38.43;;;21.40;;
83840;SDS011;73868;52.172;10.668;2023-11-21T05:26:17;34.30;;;20.70;;
83840;SDS011;73868;52.172;10.668;2023-11-21T05:28:43;42.57;;;27.50;;
83840;SDS011;73868;52.172;10.668;2023-11-21T05:31:09;73.93;;;44.60;;
83840;SDS011;73868;52.172;10.668;2023-11-21T05:33:35;58.90;;;35.67;;
83840;SDS011;73868;52.172;10.668;2023-11-21T05:36:02;66.70;;;37.60;;
83840;SDS011;73868;52.172;10.668;2023-11-21T05:38:28;75.00;;;40.13;;
83840;SDS011;73868;52.172;10.668;2023-11-21T05:40:54;89.43;;;45.97;;
83840;SDS011;73868;52.172;10.668;2023-11-21T05:43:20;83.97;;;40.50;;
83840;SDS011;73868;52.172;10.668;2023-11-21T05:45:46;97.83;;;47.93;;
83840;SDS011;73868;52.172;10.668;2023-11-21T05:48:12;43.40;;;25.47;;
83840;SDS011;73868;52.172;10.668;2023-11-21T05:50:38;42.70;;;27.57;;
83840;SDS011;73868;52.172;10.668;2023-11-21T05:53:04;57.13;;;32.27;;
83840;SDS011;73868;52.172;10.668;2023-11-21T05:55:30;44.80;;;28.80;;
83840;SDS011;73868;52.172;10.668;2023-11-21T05:57:56;27.27;;;19.13;;
83840;SDS011;73868;52.172;10.668;2023-11-21T06:00:22;39.93;;;26.53;;
83840;SDS011;73868;52.172;10.668;2023-11-21T06:02:50;42.37;;;26.57;;
83840;SDS011;73868;52.172;10.668;2023-11-21T06:05:21;27.73;;;20.00;;
83840;SDS011;73868;52.172;10.668;2023-11-21T06:07:48;28.43;;;19.50;;
83840;SDS011;73868;52.172;10.668;2023-11-21T06:10:14;30.00;;;20.13;;
83840;SDS011;73868;52.172;10.668;2023-11-21T06:12:42;27.83;;;19.80;;
83840;SDS011;73868;52.172;10.668;2023-11-21T06:15:09;29.00;;;19.60;;
83840;SDS011;73868;52.172;10.668;2023-11-21T06:17:38;30.60;;;19.70;;
83840;SDS011;73868;52.172;10.668;2023-11-21T06:20:05;26.80;;;19.53;;
83840;SDS011;73868;52.172;10.668;2023-11-21T06:22:37;28.77;;;20.43;;
83840;SDS011;73868;52.172;10.668;2023-11-21T06:25:03;33.10;;;21.50;;
83840;SDS011;73868;52.172;10.668;2023-11-21T06:27:31;28.37;;;21.00;;
83840;SDS011;73868;52.172;10.668;2023-11-21T06:29:57;35.47;;;25.43;;
83840;SDS011;73868;52.172;10.668;2023-11-21T06:32:23;32.40;;;22.20;;
83840;SDS011;73868;52.172;10.668;2023-11-21T06:34:51;35.10;;;21.57;;
83840;SDS011;73868;52.172;10.668;2023-11-21T06:37:19;23.10;;;15.23;;
83840;SDS011;73868;52.172;10.668;2023-11-21T06:39:48;19.87;;;13.67;;
83840;SDS011;73868;52.172;10.668;2023-11-21T06:42:14;8.40;;;6.97;;
83840;SDS011;73868;52.172;10.668;2023-11-21T06:44:40;6.50;;;4.87;;
83840;SDS011;73868;52.172;10.668;2023-11-21T06:47:06;6.40;;;5.77;;
83840;SDS011;73868;52.172;10.668;2023-11-21T06:49:32;4.63;;;4.23;;
83840;SDS011;73868;52.172;10.668;2023-11-21T06:51:58;4.27;;;3.80;;
83840;SDS011;73868;52.172;10.668;2023-11-21T06:54:27;5.20;;;4.70;;
83840;SDS011;73868;52.172;10.668;2023-11-21T06:56:54;6.13;;;5.53;;
83840;SDS011;73868;52.172;10.668;2023-11-21T06:59:21;6.87;;;6.10;;
83840;SDS011;73868;52.172;10.668;2023-11-21T07:01:48;7.13;;;6.43;;
83840;SDS011;73868;52.172;10.668;2023-11-21T07:04:14;8.33;;;7.43;;
83840;SDS011;73868;52.172;10.668;2023-11-21T07:06:40;8.97;;;7.97;;
83840;SDS011;73868;52.172;10.668;2023-11-21T07:09:07;12.27;;;9.03;;
83840;SDS011;73868;52.172;10.668;2023-11-21T07:11:34;9.93;;;8.93;;
83840;SDS011;73868;52.172;10.668;2023-11-21T07:14:00;7.93;;;7.23;;
83840;SDS011;73868;52.172;10.668;2023-11-21T07:16:34;8.40;;;7.50;;
83840;SDS011;73868;52.172;10.668;2023-11-21T07:19:03;8.47;;;7.13;;
83840;SDS011;73868;52.172;10.668;2023-11-21T07:21:33;8.43;;;7.07;;
83840;SDS011;73868;52.172;10.668;2023-11-21T07:24:02;6.33;;;5.77;;
83840;SDS011;73868;52.172;10.668;2023-11-21T07:26:32;6.57;;;5.57;;
83840;SDS011;73868;52.172;10.668;2023-11-21T07:28:59;6.43;;;5.70;;
83840;SDS011;73868;52.172;10.668;2023-11-21T07:31:25;6.50;;;5.90;;
83840;SDS011;73868;52.172;10.668;2023-11-21T07:33:51;8.07;;;6.60;;
83840;SDS011;73868;52.172;10.668;2023-11-21T07:36:18;7.00;;;6.20;;
83840;SDS011;73868;52.172;10.668;2023-11-21T07:38:44;7.77;;;7.00;;
83840;SDS011;73868;52.172;10.668;2023-11-21T07:41:10;8.30;;;7.37;;
83840;SDS011;73868;52.172;10.668;2023-11-21T07:43:36;8.73;;;7.87;;
83840;SDS011;73868;52.172;10.668;2023-11-21T07:46:03;8.70;;;7.80;;
83840;SDS011;73868;52.172;10.668;2023-11-21T07:48:32;10.07;;;8.70;;
83840;SDS011;73868;52.172;10.668;2023-11-21T07:50:59;10.67;;;9.40;;
83840;SDS011;73868;52.172;10.668;2023-11-21T07:53:25;14.00;;;11.10;;
83840;SDS011;73868;52.172;10.668;2023-11-21T07:55:55;13.77;;;10.83;;
83840;SDS011;73868;52.172;10.668;2023-11-21T07:58:21;10.50;;;9.37;;
83840;SDS011;73868;52.172;10.668;2023-11-21T08:00:47;10.73;;;9.63;;
83840;SDS011;73868;52.172;10.668;2023-11-21T08:03:13;10.50;;;9.10;;
83840;SDS011;73868;52.172;10.668;2023-11-21T08:05:39;10.00;;;8.90;;
83840;SDS011;73868;52.172;10.668;2023-11-21T08:08:05;9.73;;;8.37;;
83840;SDS011;73868;52.172;10.668;2023-11-21T08:10:32;10.00;;;9.00;;
83840;SDS011;73868;52.172;10.668;2023-11-21T08:12:58;8.60;;;7.70;;
83840;SDS011;73868;52.172;10.668;2023-11-21T08:15:24;9.63;;;8.03;;
83840;SDS011;73868;52.172;10.668;2023-11-21T08:17:50;7.30;;;6.57;;
83840;SDS011;73868;52.172;10.668;2023-11-21T08:20:16;8.33;;;6.90;;
83840;SDS011;73868;52.172;10.668;2023-11-21T08:22:43;8.33;;;7.13;;
83840;SDS011;73868;52.172;10.668;2023-11-21T08:25:09;8.00;;;7.20;;
83840;SDS011;73868;52.172;10.668;2023-11-21T08:27:35;8.30;;;7.50;;
83840;SDS011;73868;52.172;10.668;2023-11-21T08:30:05;7.93;;;7.13;;
83840;SDS011;73868;52.172;10.668;2023-11-21T08:32:32;7.80;;;7.10;;
83840;SDS011;73868;52.172;10.668;2023-11-21T08:34:58;7.83;;;7.07;;
83840;SDS011;73868;52.172;10.668;2023-11-21T08:37:24;7.40;;;6.53;;
83840;SDS011;73868;52.172;10.668;2023-11-21T08:39:52;7.87;;;6.70;;
83840;SDS011;73868;52.172;10.668;2023-11-21T08:42:18;6.30;;;5.70;;
83840;SDS011;73868;52.172;10.668;2023-11-21T08:44:44;6.93;;;6.23;;
83840;SDS011;73868;52.172;10.668;2023-11-21T08:47:10;7.97;;;6.67;;
83840;SDS011;73868;52.172;10.668;2023-11-21T08:49:37;7.90;;;7.10;;
83840;SDS011;73868;52.172;10.668;2023-11-21T08:52:03;7.67;;;6.97;;
83840;SDS011;73868;52.172;10.668;2023-11-21T08:54:30;7.73;;;6.97;;
83840;SDS011;73868;52.172;10.668;2023-11-21T08:56:56;7.83;;;7.03;;
83840;SDS011;73868;52.172;10.668;2023-11-21T08:59:25;8.43;;;7.13;;
83840;SDS011;73868;52.172;10.668;2023-11-21T09:01:52;8.87;;;8.00;;
83840;SDS011;73868;52.172;10.668;2023-11-21T09:04:18;7.83;;;7.03;;
83840;SDS011;73868;52.172;10.668;2023-11-21T09:06:44;8.40;;;7.60;;
83840;SDS011;73868;52.172;10.668;2023-11-21T09:09:09;9.17;;;8.33;;
83840;SDS011;73868;52.172;10.668;2023-11-21T09:11:36;9.53;;;8.30;;
83840;SDS011;73868;52.172;10.668;2023-11-21T09:14:02;42.90;;;21.90;;
83840;SDS011;73868;52.172;10.668;2023-11-21T09:16:28;19.47;;;12.83;;
83840;SDS011;73868;52.172;10.668;2023-11-21T09:18:55;164.93;;;47.90;;
83840;SDS011;73868;52.172;10.668;2023-11-21T09:21:21;273.37;;;70.93;;
83840;SDS011;73868;52.172;10.668;2023-11-21T09:23:48;25.70;;;15.00;;
83840;SDS011;73868;52.172;10.668;2023-11-21T09:26:14;20.67;;;13.37;;
83840;SDS011;73868;52.172;10.668;2023-11-21T09:28:41;18.33;;;12.70;;
83840;SDS011;73868;52.172;10.668;2023-11-21T09:31:11;28.23;;;17.07;;
83840;SDS011;73868;52.172;10.668;2023-11-21T09:33:37;13.43;;;10.17;;
83840;SDS011;73868;52.172;10.668;2023-11-21T09:36:04;12.13;;;8.83;;
83840;SDS011;73868;52.172;10.668;2023-11-21T09:38:30;7.73;;;7.00;;
83840;SDS011;73868;52.172;10.668;2023-11-21T09:40:56;8.30;;;7.37;;
83840;SDS011;73868;52.172;10.668;2023-11-21T09:43:23;11.53;;;7.43;;
83840;SDS011;73868;52.172;10.668;2023-11-21T09:45:56;7.87;;;7.03;;
83840;SDS011;73868;52.172;10.668;2023-11-21T09:48:25;7.90;;;7.13;;
83840;SDS011;73868;52.172;10.668;2023-11-21T09:50:51;7.70;;;5.90;;
83840;SDS011;73868;52.172;10.668;2023-11-21T09:53:20;7.37;;;6.53;;
83840;SDS011;73868;52.172;10.668;2023-11-21T09:55:47;7.57;;;6.80;;
83840;SDS011;73868;52.172;10.668;2023-11-21T09:58:13;6.70;;;5.90;;
83840;SDS011;73868;52.172;10.668;2023-11-21T10:00:40;7.20;;;6.50;;
83840;SDS011;73868;52.172;10.668;2023-11-21T10:03:06;10.73;;;7.00;;
83840;SDS011;73868;52.172;10.668;2023-11-21T10:05:33;6.97;;;6.30;;
83840;SDS011;73868;52.172;10.668;2023-11-21T10:07:59;6.07;;;5.47;;
83840;SDS011;73868;52.172;10.668;2023-11-21T10:10:26;6.13;;;5.53;;
83840;SDS011;73868;52.172;10.668;2023-11-21T10:12:57;6.23;;;5.63;;
83840;SDS011;73868;52.172;10.668;2023-11-21T10:15:23;6.33;;;5.73;;
83840;SDS011;73868;52.172;10.668;2023-11-21T10:17:53;6.17;;;5.60;;
83840;SDS011;73868;52.172;10.668;2023-11-21T10:20:19;6.27;;;5.67;;
83840;SDS011;73868;52.172;10.668;2023-11-21T10:22:45;8.50;;;6.60;;
83840;SDS011;73868;52.172;10.668;2023-11-21T10:25:12;6.30;;;5.70;;
83840;SDS011;73868;52.172;10.668;2023-11-21T10:27:40;6.90;;;6.30;;
83840;SDS011;73868;52.172;10.668;2023-11-21T10:30:09;6.30;;;5.53;;
83840;SDS011;73868;52.172;10.668;2023-11-21T10:32:41;6.50;;;5.77;;
83840;SDS011;73868;52.172;10.668;2023-11-21T10:35:07;6.43;;;5.83;;
83840;SDS011;73868;52.172;10.668;2023-11-21T10:37:35;6.73;;;5.83;;
83840;SDS011;73868;52.172;10.668;2023-11-21T10:40:04;6.40;;;5.80;;
83840;SDS011;73868;52.172;10.668;2023-11-21T10:42:31;6.33;;;5.73;;
83840;SDS011;73868;52.172;10.668;2023-11-21T10:44:57;6.93;;;6.23;;
83840;SDS011;73868;52.172;10.668;2023-11-21T10:47:23;6.87;;;6.17;;
83840;SDS011;73868;52.172;10.668;2023-11-21T10:49:49;6.63;;;6.03;;
83840;SDS011;73868;52.172;10.668;2023-11-21T10:52:15;6.87;;;6.17;;
83840;SDS011;73868;52.172;10.668;2023-11-21T10:54:44;6.20;;;5.60;;
83840;SDS011;73868;52.172;10.668;2023-11-21T10:57:10;6.73;;;6.13;;
83840;SDS011;73868;52.172;10.668;2023-11-21T10:59:40;7.47;;;5.90;;
83840;SDS011;73868;52.172;10.668;2023-11-21T11:02:24;7.50;;;6.30;;
83840;SDS011;73868;52.172;10.668;2023-11-21T11:04:53;6.83;;;6.13;;
83840;SDS011;73868;52.172;10.668;2023-11-21T11:07:20;6.97;;;6.27;;
83840;SDS011;73868;52.172;10.668;2023-11-21T11:09:47;6.90;;;6.23;;
83840;SDS011;73868;52.172;10.668;2023-11-21T11:12:13;7.43;;;6.23;;
83840;SDS011;73868;52.172;10.668;2023-11-21T11:14:42;7.47;;;6.70;;
83840;SDS011;73868;52.172;10.668;2023-11-21T11:17:09;6.80;;;6.10;;
83840;SDS011;73868;52.172;10.668;2023-11-21T11:19:36;8.40;;;6.80;;
83840;SDS011;73868;52.172;10.668;2023-11-21T11:22:11;7.70;;;6.63;;
83840;SDS011;73868;52.172;10.668;2023-11-21T11:25:03;6.77;;;5.90;;
83840;SDS011;73868;52.172;10.668;2023-11-21T11:33:01;6.10;;;5.60;;
83840;SDS011;73868;52.172;10.668;2023-11-21T11:37:55;7.23;;;6.53;;
83840;SDS011;73868;52.172;10.668;2023-11-21T11:40:21;7.33;;;6.63;;
83840;SDS011;73868;52.172;10.668;2023-11-21T11:42:57;6.97;;;6.37;;
83840;SDS011;73868;52.172;10.668;2023-11-21T11:45:24;8.57;;;6.80;;
83840;SDS011;73868;52.172;10.668;2023-11-21T11:47:56;7.47;;;6.70;;
83840;SDS011;73868;52.172;10.668;2023-11-21T11:50:22;6.97;;;6.37;;
83840;SDS011;73868;52.172;10.668;2023-11-21T11:52:50;6.67;;;6.07;;
83840;SDS011;73868;52.172;10.668;2023-11-21T11:55:18;7.70;;;6.30;;
83840;SDS011;73868;52.172;10.668;2023-11-21T11:57:49;6.10;;;5.50;;
83840;SDS011;73868;52.172;10.668;2023-11-21T12:00:20;6.40;;;5.80;;
83840;SDS011;73868;52.172;10.668;2023-11-21T12:03:02;41.93;;;29.83;;
83840;SDS011;73868;52.172;10.668;2023-11-21T12:05:29;36.67;;;28.70;;
83840;SDS011;73868;52.172;10.668;2023-11-21T12:08:02;64.70;;;56.80;;
83840;SDS011;73868;52.172;10.668;2023-11-21T12:10:29;18.40;;;16.63;;
83840;SDS011;73868;52.172;10.668;2023-11-21T12:12:58;135.27;;;120.53;;
83840;SDS011;73868;52.172;10.668;2023-11-21T12:15:25;34.27;;;29.43;;
83840;SDS011;73868;52.172;10.668;2023-11-21T12:17:54;19.97;;;17.93;;
83840;SDS011;73868;52.172;10.668;2023-11-21T12:20:23;22.77;;;20.43;;
83840;SDS011;73868;52.172;10.668;2023-11-21T12:22:50;32.53;;;29.17;;
83840;SDS011;73868;52.172;10.668;2023-11-21T12:25:17;31.20;;;28.00;;
83840;SDS011;73868;52.172;10.668;2023-11-21T12:27:44;40.70;;;36.33;;
83840;SDS011;73868;52.172;10.668;2023-11-21T12:30:11;38.93;;;34.83;;
83840;SDS011;73868;52.172;10.668;2023-11-21T12:32:39;42.53;;;37.93;;
83840;SDS011;73868;52.172;10.668;2023-11-21T12:35:06;29.87;;;26.70;;
83840;SDS011;73868;52.172;10.668;2023-11-21T12:37:33;29.37;;;26.37;;
83840;SDS011;73868;52.172;10.668;2023-11-21T12:39:59;64.83;;;57.90;;
83840;SDS011;73868;52.172;10.668;2023-11-21T12:42:24;38.53;;;34.40;;
83840;SDS011;73868;52.172;10.668;2023-11-21T12:47:40;24.60;;;22.03;;
83840;SDS011;73868;52.172;10.668;2023-11-21T12:50:07;47.53;;;41.53;;
83840;SDS011;73868;52.172;10.668;2023-11-21T12:52:39;18.20;;;16.30;;
83840;SDS011;73868;52.172;10.668;2023-11-21T12:55:05;15.80;;;14.20;;
83840;SDS011;73868;52.172;10.668;2023-11-21T12:57:33;21.33;;;19.13;;
83840;SDS011;73868;52.172;10.668;2023-11-21T12:59:59;25.03;;;22.03;;
83840;SDS011;73868;52.172;10.668;2023-11-21T13:02:36;30.60;;;27.30;;
83840;SDS011;73868;52.172;10.668;2023-11-21T13:05:03;134.60;;;96.87;;
83840;SDS011;73868;52.172;10.668;2023-11-21T13:07:40;46.00;;;35.80;;
83840;SDS011;73868;52.172;10.668;2023-11-21T13:10:12;50.77;;;41.60;;
83840;SDS011;73868;52.172;10.668;2023-11-21T13:12:45;32.03;;;25.00;;
83840;SDS011;73868;52.172;10.668;2023-11-21T13:15:16;38.00;;;30.67;;
83840;SDS011;73868;52.172;10.668;2023-11-21T13:17:46;48.17;;;36.70;;
83840;SDS011;73868;52.172;10.668;2023-11-21T13:20:12;114.90;;;87.67;;
83840;SDS011;73868;52.172;10.668;2023-11-21T13:22:44;131.77;;;100.27;;
83840;SDS011;73868;52.172;10.668;2023-11-21T13:25:10;21.10;;;17.70;;
83840;SDS011;73868;52.172;10.668;2023-11-21T13:27:36;45.63;;;35.13;;
83840;SDS011;73868;52.172;10.668;2023-11-21T13:30:03;42.97;;;33.17;;
83840;SDS011;73868;52.172;10.668;2023-11-21T13:32:29;81.07;;;55.97;;
83840;SDS011;73868;52.172;10.668;2023-11-21T13:34:57;91.27;;;80.33;;
83840;SDS011;73868;52.172;10.668;2023-11-21T13:37:24;25.53;;;23.10;;
83840;SDS011;73868;52.172;10.668;2023-11-21T13:39:53;24.90;;;22.80;;
83840;SDS011;73868;52.172;10.668;2023-11-21T13:42:19;24.00;;;21.73;;
83840;SDS011;73868;52.172;10.668;2023-11-21T13:44:55;16.00;;;14.70;;
83840;SDS011;73868;52.172;10.668;2023-11-21T13:47:21;13.97;;;12.67;;
83840;SDS011;73868;52.172;10.668;2023-11-21T13:49:50;9.40;;;8.50;;
83840;SDS011;73868;52.172;10.668;2023-11-21T13:52:16;7.13;;;5.80;;
83840;SDS011;73868;52.172;10.668;2023-11-21T13:54:45;12.17;;;10.97;;
83840;SDS011;73868;52.172;10.668;2023-11-21T13:57:12;10.10;;;9.20;;
83840;SDS011;73868;52.172;10.668;2023-11-21T13:59:38;14.43;;;13.07;;
83840;SDS011;73868;52.172;10.668;2023-11-21T14:02:04;24.20;;;21.67;;
83840;SDS011;73868;52.172;10.668;2023-11-21T14:04:44;11.00;;;9.90;;
83840;SDS011;73868;52.172;10.668;2023-11-21T14:07:20;20.80;;;18.63;;
83840;SDS011;73868;52.172;10.668;2023-11-21T14:10:00;37.57;;;31.27;;
83840;SDS011;73868;52.172;10.668;2023-11-21T14:12:26;62.20;;;44.80;;
83840;SDS011;73868;52.172;10.668;2023-11-21T14:14:53;23.97;;;21.40;;
83840;SDS011;73868;52.172;10.668;2023-11-21T14:17:20;30.53;;;24.87;;
83840;SDS011;73868;52.172;10.668;2023-11-21T14:19:47;65.07;;;51.13;;
83840;SDS011;73868;52.172;10.668;2023-11-21T14:22:14;18.37;;;15.93;;
83840;SDS011;73868;52.172;10.668;2023-11-21T14:24:40;38.87;;;33.77;;
83840;SDS011;73868;52.172;10.668;2023-11-21T14:27:10;15.80;;;14.40;;
83840;SDS011;73868;52.172;10.668;2023-11-21T14:29:36;13.40;;;12.10;;